Brandy Bar — WDF7323 — position and weather

sailwx.info

Track history (hours):
 
Tides and Currents Weather Stations Pressure Air Temp Water Temp Dewpoint Dewpoint Depression Visibility Wind Speed Wind Dir Waves Ship Positions

Brandy Bar

Owner: Brandy Bar, Tiburon, CA. More information available from US FCC via Universal Licensing System and Coast Guard Vessel Documentation Center.

Last reported at 2015-Jul-28 01:33 UTC. Time now 2015-Jul-28 08:21 UTC.
Position N 37°58' W 122°29'.

Type: Towing. MMSI: 367483310.

Date/timePositionNaut miles runAvg speedWind from/ knotsBaromVisibWave heightAir tempDewpointWater temp
2015-Jul-28 01:33N 37°58' W 122°29'0 0.0
2015-Jul-28 00:33N 37°58' W 122°29'2 2.0
2015-Jul-27 23:33N 37°58' W 122°27'1 0.8
2015-Jul-27 22:33N 37°58' W 122°27'2 1.7
2015-Jul-27 21:33N 37°58' W 122°29'1 1.5
2015-Jul-27 20:33N 37°57' W 122°27'1 1.1
2015-Jul-27 19:33N 37°58' W 122°27'2 2.0
2015-Jul-27 18:33N 37°58' W 122°29'2 1.9
2015-Jul-27 17:33N 37°58' W 122°27'0 0.5
2015-Jul-27 16:33N 37°58' W 122°27'2 1.7
2015-Jul-27 15:33N 37°58' W 122°29'0 0.1
2015-Jul-27 14:33N 37°58' W 122°29'  
2015-Jul-24 23:32N 37°58' W 122°28'2 2.1
2015-Jul-24 22:32N 37°59' W 122°26'3 1.2
2015-Jul-24 20:22N 37°58' W 122°29'0 0.0
2015-Jul-24 19:33N 37°58' W 122°29'0 0.1
2015-Jul-24 18:33N 37°58' W 122°29'2 1.9
2015-Jul-24 17:33N 37°58' W 122°27'1 1.1
2015-Jul-24 16:33N 37°57' W 122°27'2 1.7
2015-Jul-24 15:33N 37°58' W 122°29'0 0.1
2015-Jul-24 14:33N 37°58' W 122°29'0 0.0
2015-Jul-24 02:33N 37°58' W 122°29'0 0.1
2015-Jul-24 01:33N 37°58' W 122°29'4 3.7
2015-Jul-24 00:34N 38°00' W 122°25'4 3.3
2015-Jul-23 23:27N 37°58' W 122°29'0 0.0
2015-Jul-23 22:33N 37°58' W 122°29'3 2.9
2015-Jul-23 21:34N 37°60' W 122°26'3 2.5
2015-Jul-23 20:33N 37°58' W 122°28'1 1.0
2015-Jul-23 19:15N 37°58' W 122°29'1 0.8
2015-Jul-23 18:33N 37°58' W 122°29'3 2.8
2015-Jul-23 17:29N 37°55' W 122°29'3 2.9
2015-Jul-23 16:20N 37°58' W 122°29'4 4.4
2015-Jul-23 15:32N 38°00' W 122°25'3 2.6
2015-Jul-23 14:12N 37°58' W 122°29'2 0.1
2015-Jul-23 00:33N 37°58' W 122°27'1 1.1
2015-Jul-22 23:33N 37°59' W 122°26'2 2.2
2015-Jul-22 22:33N 37°58' W 122°29'3 2.7
2015-Jul-22 21:34N 37°59' W 122°26'2 2.4
2015-Jul-22 20:33N 37°58' W 122°28'1 1.0
2015-Jul-22 19:34N 37°58' W 122°29'1 1.2
2015-Jul-22 18:33N 37°58' W 122°28'2 2.5
2015-Jul-22 17:34N 37°59' W 122°26'3 3.1
2015-Jul-22 16:33N 37°57' W 122°27'3 2.7
2015-Jul-22 15:33N 37°54' W 122°27'1 1.4
2015-Jul-22 14:34N 37°55' W 122°28'0 0.0
2015-Jul-22 02:11N 37°55' W 122°28'0 0.0
2015-Jul-22 01:34N 37°55' W 122°28'0 0.0
2015-Jul-22 00:34N 37°55' W 122°28'0 0.0
2015-Jul-21 23:33N 37°55' W 122°28'4 3.7
2015-Jul-21 22:33N 37°52' W 122°27'1 1.3
2015-Jul-21 21:33N 37°52' W 122°25'4 3.8
2015-Jul-21 20:34N 37°55' W 122°28'0 0.0
2015-Jul-21 19:33N 37°55' W 122°28'0 0.0
2015-Jul-21 18:34N 37°55' W 122°28'0 0.0
2015-Jul-21 17:21N 37°55' W 122°28'2 2.9
2015-Jul-21 16:33N 37°53' W 122°26'4 3.8
2015-Jul-21 15:33N 37°50' W 122°26'6 5.8
2015-Jul-21 14:33N 37°55' W 122°28'0 0.0
2015-Jul-21 03:19N 37°55' W 122°28'3 4.5
2015-Jul-21 02:33N 37°58' W 122°29'4 3.7
2015-Jul-21 01:33N 38°00' W 122°25'4 3.6
2015-Jul-21 00:33N 37°58' W 122°28'1 1.0
2015-Jul-20 23:33N 37°58' W 122°29'4 3.8
2015-Jul-20 22:33N 38°00' W 122°25'3 3.5
2015-Jul-20 21:33N 37°58' W 122°28'1 1.3
2015-Jul-20 20:33N 37°58' W 122°29'0 0.0
2015-Jul-20 19:33N 37°58' W 122°29'3 2.7
2015-Jul-20 18:33N 37°56' W 122°28'5 5.0
2015-Jul-20 17:33N 37°51' W 122°25'1 1.0
2015-Jul-20 16:33N 37°52' W 122°25'3 3.2
2015-Jul-20 15:33N 37°55' W 122°28'1 0.5
2015-Jul-20 14:33N 37°55' W 122°28'  
2015-Jul-18 01:33N 37°55' W 122°28'  
Track history (hours):
 
Tides and Currents Weather Stations Pressure Air Temp Water Temp Dewpoint Dewpoint Depression Visibility Wind Speed Wind Dir Waves Ship Positions

Brandy Bar

Owner: Brandy Bar, Tiburon, CA. More information available from US FCC via Universal Licensing System and Coast Guard Vessel Documentation Center.

Last reported at 2015-Jul-28 01:33 UTC. Time now 2015-Jul-28 08:21 UTC.
Position N 37°58' W 122°29'.

Type: Towing. MMSI: 367483310.

Date/timePositionNaut miles runAvg speedWind from/ knotsBaromVisibWave heightAir tempDewpointWater temp
2015-Jul-28 01:33N 37°58' W 122°29'0 0.0
2015-Jul-28 00:33N 37°58' W 122°29'2 2.0
2015-Jul-27 23:33N 37°58' W 122°27'1 0.8
2015-Jul-27 22:33N 37°58' W 122°27'2 1.7
2015-Jul-27 21:33N 37°58' W 122°29'1 1.5
2015-Jul-27 20:33N 37°57' W 122°27'1 1.1
2015-Jul-27 19:33N 37°58' W 122°27'2 2.0
2015-Jul-27 18:33N 37°58' W 122°29'2 1.9
2015-Jul-27 17:33N 37°58' W 122°27'0 0.5
2015-Jul-27 16:33N 37°58' W 122°27'2 1.7
2015-Jul-27 15:33N 37°58' W 122°29'0 0.1
2015-Jul-27 14:33N 37°58' W 122°29'  
2015-Jul-24 23:32N 37°58' W 122°28'2 2.1
2015-Jul-24 22:32N 37°59' W 122°26'3 1.2
2015-Jul-24 20:22N 37°58' W 122°29'0 0.0
2015-Jul-24 19:33N 37°58' W 122°29'0 0.1
2015-Jul-24 18:33N 37°58' W 122°29'2 1.9
2015-Jul-24 17:33N 37°58' W 122°27'1 1.1
2015-Jul-24 16:33N 37°57' W 122°27'2 1.7
2015-Jul-24 15:33N 37°58' W 122°29'0 0.1
2015-Jul-24 14:33N 37°58' W 122°29'0 0.0
2015-Jul-24 02:33N 37°58' W 122°29'0 0.1
2015-Jul-24 01:33N 37°58' W 122°29'4 3.7
2015-Jul-24 00:34N 38°00' W 122°25'4 3.3
2015-Jul-23 23:27N 37°58' W 122°29'0 0.0
2015-Jul-23 22:33N 37°58' W 122°29'3 2.9
2015-Jul-23 21:34N 37°60' W 122°26'3 2.5
2015-Jul-23 20:33N 37°58' W 122°28'1 1.0
2015-Jul-23 19:15N 37°58' W 122°29'1 0.8
2015-Jul-23 18:33N 37°58' W 122°29'3 2.8
2015-Jul-23 17:29N 37°55' W 122°29'3 2.9
2015-Jul-23 16:20N 37°58' W 122°29'4 4.4
2015-Jul-23 15:32N 38°00' W 122°25'3 2.6
2015-Jul-23 14:12N 37°58' W 122°29'2 0.1
2015-Jul-23 00:33N 37°58' W 122°27'1 1.1
2015-Jul-22 23:33N 37°59' W 122°26'2 2.2
2015-Jul-22 22:33N 37°58' W 122°29'3 2.7
2015-Jul-22 21:34N 37°59' W 122°26'2 2.4
2015-Jul-22 20:33N 37°58' W 122°28'1 1.0
2015-Jul-22 19:34N 37°58' W 122°29'1 1.2
2015-Jul-22 18:33N 37°58' W 122°28'2 2.5
2015-Jul-22 17:34N 37°59' W 122°26'3 3.1
2015-Jul-22 16:33N 37°57' W 122°27'3 2.7
2015-Jul-22 15:33N 37°54' W 122°27'1 1.4
2015-Jul-22 14:34N 37°55' W 122°28'0 0.0
2015-Jul-22 02:11N 37°55' W 122°28'0 0.0
2015-Jul-22 01:34N 37°55' W 122°28'0 0.0
2015-Jul-22 00:34N 37°55' W 122°28'0 0.0
2015-Jul-21 23:33N 37°55' W 122°28'4 3.7
2015-Jul-21 22:33N 37°52' W 122°27'1 1.3
2015-Jul-21 21:33N 37°52' W 122°25'4 3.8
2015-Jul-21 20:34N 37°55' W 122°28'0 0.0
2015-Jul-21 19:33N 37°55' W 122°28'0 0.0
2015-Jul-21 18:34N 37°55' W 122°28'0 0.0
2015-Jul-21 17:21N 37°55' W 122°28'2 2.9
2015-Jul-21 16:33N 37°53' W 122°26'4 3.8
2015-Jul-21 15:33N 37°50' W 122°26'6 5.8
2015-Jul-21 14:33N 37°55' W 122°28'0 0.0
2015-Jul-21 03:19N 37°55' W 122°28'3 4.5
2015-Jul-21 02:33N 37°58' W 122°29'4 3.7
2015-Jul-21 01:33N 38°00' W 122°25'4 3.6
2015-Jul-21 00:33N 37°58' W 122°28'1 1.0
2015-Jul-20 23:33N 37°58' W 122°29'4 3.8
2015-Jul-20 22:33N 38°00' W 122°25'3 3.5
2015-Jul-20 21:33N 37°58' W 122°28'1 1.3
2015-Jul-20 20:33N 37°58' W 122°29'0 0.0
2015-Jul-20 19:33N 37°58' W 122°29'3 2.7
2015-Jul-20 18:33N 37°56' W 122°28'5 5.0
2015-Jul-20 17:33N 37°51' W 122°25'1 1.0
2015-Jul-20 16:33N 37°52' W 122°25'3 3.2
2015-Jul-20 15:33N 37°55' W 122°28'1 0.5
2015-Jul-20 14:33N 37°55' W 122°28'  
2015-Jul-18 01:33N 37°55' W 122°28'  

Dump ship's entire track history